Speed, Missouri
Current Conditions -  °F | °C
As of 10:15 AM on Monday 22 Dec 2014 (Local Time) from KVER Reporting Station
Overcast Overcast  
Wind Chill:   Ceiling: 800
Heat Index:   Visibility: 10mi
Dew Point:   Wind: 9mph
Humidity: 97%   Direction: 150°SSE
Pressure: 29.63"   Gusts: 16mph
Location:  38.8814°N, 92.7602°W
Report Text: KVER 221615Z AUTO 15008G14KT 10SM OVC008 07/06 A2963 RMK AO2 T00660061
Loading
Personal Weather Stations






























Interactive Weather Map New forecast layout! Learn more

10-Day Weather Forecast

Advertisements
Track Severe Weather on mobile